Time;durP1;ratioP1;P1;durP2;ratioP2;P2;SDS_P1;SDS_P2;PMS_P1;PMS_P2;Temp;Humidity;BMP_temperature;BMP_pressure;BME280_temperature;BME280_humidity;BME280_pressure;Samples;Min_cycle;Max_cycle;Signal;HPM_P1;HPM_P2
2022/11/07 00:01:16;;;;;;;9.70;4.93;;;10.20;99.90;;;;;;5117719;28;20460;-81
2022/11/07 00:03:42;;;;;;;7.63;4.32;;;10.10;99.90;;;;;;5117023;28;20040;-81
2022/11/07 00:06:08;;;;;;;8.13;4.13;;;10.30;99.90;;;;;;5116736;28;20046;-81
2022/11/07 00:08:33;;;;;;;7.82;4.05;;;10.30;99.90;;;;;;5117144;28;20047;-81
2022/11/07 00:11:00;;;;;;;8.82;4.93;;;10.30;99.90;;;;;;5116939;28;20044;-81
2022/11/07 00:13:26;;;;;;;;;;;10.30;99.90;;;;;;5117057;28;20395;-81
2022/11/07 00:16:05;;;;;;;6.93;4.18;;;10.30;99.90;;;;;;5117423;28;19919;-81
2022/11/07 00:18:30;;;;;;;7.20;3.80;;;10.30;99.90;;;;;;5116691;28;20055;-81
2022/11/07 00:21:00;;;;;;;7.65;3.95;;;10.40;99.90;;;;;;5116585;28;20047;-80
2022/11/07 00:23:26;;;;;;;7.30;4.30;;;10.40;99.90;;;;;;5117268;28;20055;-82
2022/11/07 00:25:51;;;;;;;7.22;4.28;;;10.50;99.90;;;;;;5116652;28;20498;-81
2022/11/07 00:28:17;;;;;;;7.63;4.00;;;10.40;99.90;;;;;;5116522;28;20043;-81
2022/11/07 00:30:42;;;;;;;7.80;4.28;;;10.40;99.90;;;;;;5116653;28;20143;-81
2022/11/07 00:33:08;;;;;;;8.60;3.92;;;10.50;99.90;;;;;;5116549;28;20055;-81
2022/11/07 00:35:33;;;;;;;8.07;4.18;;;10.50;99.90;;;;;;5115330;28;20047;-80
2022/11/07 00:37:59;;;;;;;9.70;4.53;;;10.50;99.90;;;;;;5116242;28;20471;-81
2022/11/07 00:40:25;;;;;;;6.30;4.10;;;10.50;99.90;;;;;;5116388;28;20162;-81
2022/11/07 00:42:50;;;;;;;8.35;4.43;;;10.50;99.90;;;;;;5116173;28;20388;-80
2022/11/07 00:45:16;;;;;;;10.27;4.45;;;10.60;99.90;;;;;;5116160;28;20047;-80
2022/11/07 00:47:41;;;;;;;8.73;4.25;;;10.60;99.90;;;;;;5116098;28;20040;-80
2022/11/07 00:50:07;;;;;;;9.07;3.80;;;10.70;99.90;;;;;;5116191;28;20046;-80
2022/11/07 00:52:33;;;;;;;8.15;4.00;;;10.70;99.90;;;;;;5116040;28;20043;-81
2022/11/07 00:54:58;;;;;;;6.43;4.03;;;10.60;99.90;;;;;;5114746;28;20100;-81
2022/11/07 00:57:24;;;;;;;6.10;3.78;;;10.70;99.90;;;;;;5116038;28;20043;-81
2022/11/07 00:59:49;;;;;;;9.50;3.70;;;10.70;99.90;;;;;;5115745;28;20043;-81
2022/11/07 01:02:15;;;;;;;10.35;3.88;;;10.70;99.90;;;;;;5115828;28;20112;-81
2022/11/07 01:07:25;;;;;;;13.48;3.90;;;10.70;99.90;;;;;;5114904;28;20048;-81
2022/11/07 01:09:50;;;;;;;12.13;4.22;;;10.70;99.90;;;;;;5114757;28;20084;-81
2022/11/07 01:12:16;;;;;;;8.75;3.97;;;10.60;99.90;;;;;;5114473;28;20467;-81
2022/11/07 01:14:41;;;;;;;6.63;3.90;;;10.60;99.90;;;;;;5114766;28;20040;-81
2022/11/07 01:17:07;;;;;;;7.65;3.90;;;10.50;99.90;;;;;;5115531;28;20047;-80
2022/11/07 01:19:32;;;;;;;9.88;3.63;;;10.40;99.90;;;;;;5114710;28;20361;-80
2022/11/07 01:21:58;;;;;;;7.22;3.63;;;10.40;99.90;;;;;;5115426;28;20118;-81
2022/11/07 01:24:24;;;;;;;11.25;4.22;;;10.30;99.90;;;;;;5115264;28;20069;-80
2022/11/07 01:26:50;;;;;;;9.13;3.75;;;10.30;99.90;;;;;;5115538;28;20044;-80
2022/11/07 01:29:18;;;;;;;9.95;3.70;;;10.70;99.90;;;;;;5115041;28;20548;-80
2022/11/07 01:31:43;;;;;;;11.00;4.00;;;10.30;99.90;;;;;;5114883;28;20530;-81
2022/11/07 01:34:09;;;;;;;7.63;3.75;;;10.30;99.90;;;;;;5115131;28;20035;-81
2022/11/07 01:36:35;;;;;;;10.82;4.25;;;10.00;99.90;;;;;;5115076;28;20499;-80
2022/11/07 01:39:00;;;;;;;9.43;4.35;;;10.30;99.90;;;;;;5115121;28;20047;-80
2022/11/07 01:41:29;;;;;;;6.10;3.92;;;10.30;99.90;;;;;;5114459;28;20043;-81
2022/11/07 01:44:00;;;;;;;10.48;4.03;;;10.40;99.90;;;;;;5115058;28;20126;-81
2022/11/07 01:46:35;;;;;;;11.45;3.65;;;10.40;99.90;;;;;;5115004;28;20048;-81
2022/11/07 01:49:06;;;;;;;8.13;4.00;;;10.40;99.90;;;;;;5113858;28;20039;-81
2022/11/07 01:51:38;;;;;;;11.88;4.20;;;10.40;99.90;;;;;;5114990;28;20494;-81
2022/11/07 01:54:05;;;;;;;9.98;3.78;;;10.40;99.90;;;;;;5114869;28;20043;-81
2022/11/07 01:56:31;;;;;;;;;;;10.50;99.90;;;;;;5115208;28;20039;-81
2022/11/07 01:58:58;;;;;;;12.73;3.70;;;10.50;99.90;;;;;;5114710;28;19988;-80
2022/11/07 02:01:24;;;;;;;7.70;3.70;;;10.50;99.90;;;;;;5113800;28;20388;-81
2022/11/07 02:03:51;;;;;;;7.90;3.88;;;10.60;99.90;;;;;;5114952;28;20040;-81
2022/11/07 02:06:19;;;;;;;;;;;10.60;99.90;;;;;;5114897;28;20126;-81
2022/11/07 02:08:45;;;;;;;;;;;10.60;99.90;;;;;;5115564;28;20330;-81
2022/11/07 02:11:12;;;;;;;7.35;3.50;;;10.70;99.90;;;;;;5114682;28;19920;-81
2022/11/07 02:13:38;;;;;;;7.13;4.13;;;10.70;99.90;;;;;;5114485;28;20047;-80
2022/11/07 02:16:04;;;;;;;8.52;3.42;;;10.70;99.90;;;;;;5114323;28;20138;-80
2022/11/07 02:18:34;;;;;;;7.05;3.58;;;10.70;99.90;;;;;;5114375;28;20426;-81
2022/11/07 02:21:07;;;;;;;11.88;4.10;;;10.70;99.90;;;;;;5114291;28;20039;-80
2022/11/07 02:23:40;;;;;;;8.18;3.63;;;10.70;99.90;;;;;;5114852;28;20051;-80
2022/11/07 02:26:07;;;;;;;11.25;3.97;;;10.50;99.90;;;;;;5113419;28;20444;-81
2022/11/07 02:28:35;;;;;;;9.63;3.95;;;10.40;99.90;;;;;;5114090;28;20068;-81
2022/11/07 02:31:00;;;;;;;7.43;4.07;;;10.70;99.90;;;;;;5114016;28;20523;-80
2022/11/07 02:33:26;;;;;;;8.05;3.88;;;10.70;99.90;;;;;;5114326;28;20086;-80
2022/11/07 02:35:52;;;;;;;6.88;3.90;;;10.70;99.90;;;;;;5114733;28;20079;-80
2022/11/07 02:38:34;;;;;;;7.90;4.20;;;10.90;99.90;;;;;;5114197;28;20051;-81
2022/11/07 02:41:05;;;;;;;7.60;3.83;;;10.70;99.90;;;;;;5113245;28;20118;-81
2022/11/07 02:43:33;;;;;;;7.55;3.60;;;10.80;99.90;;;;;;5114296;28;20130;-81
2022/11/07 02:46:03;;;;;;;8.48;3.60;;;10.70;99.90;;;;;;5114089;28;20048;-81
2022/11/07 02:48:31;;;;;;;8.35;3.58;;;10.70;99.90;;;;;;5114220;28;20082;-81
2022/11/07 02:50:56;;;;;;;10.48;3.78;;;10.70;99.90;;;;;;5114238;28;20430;-81
2022/11/07 02:53:22;;;;;;;15.98;4.00;;;10.70;99.90;;;;;;5114427;28;20176;-81
2022/11/07 02:55:48;;;;;;;7.15;3.70;;;10.70;99.90;;;;;;5114170;28;20047;-80
2022/11/07 02:58:14;;;;;;;9.20;3.63;;;10.70;99.90;;;;;;5114096;28;20047;-80
2022/11/07 03:00:39;;;;;;;8.77;3.53;;;10.70;99.90;;;;;;5113711;28;20501;-81
2022/11/07 03:03:05;;;;;;;10.40;3.80;;;10.80;99.90;;;;;;5114080;28;20083;-80
2022/11/07 03:05:30;;;;;;;7.40;3.20;;;10.80;99.90;;;;;;5114032;28;20038;-81
2022/11/07 03:07:56;;;;;;;9.73;4.55;;;10.80;99.90;;;;;;5113989;28;20089;-80
2022/11/07 03:10:21;;;;;;;10.75;3.55;;;10.80;99.90;;;;;;5113958;28;20509;-81
2022/11/07 03:12:47;;;;;;;6.43;3.17;;;10.80;99.90;;;;;;5114067;28;20051;-80
2022/11/07 03:15:13;;;;;;;6.80;3.20;;;10.80;99.90;;;;;;5113674;28;20050;-81
2022/11/07 03:17:40;;;;;;;9.95;4.28;;;10.80;99.90;;;;;;5113912;28;20047;-80
2022/11/07 03:20:07;;;;;;;6.43;3.50;;;11.10;99.90;;;;;;5114075;28;20083;-81
2022/11/07 03:22:33;;;;;;;9.10;3.50;;;10.80;99.90;;;;;;5113793;28;20047;-80
2022/11/07 03:24:58;;;;;;;6.50;3.20;;;10.80;99.90;;;;;;5113887;28;20051;-81
2022/11/07 03:27:24;;;;;;;9.10;3.90;;;10.80;99.90;;;;;;5113834;28;20068;-81
2022/11/07 03:29:49;;;;;;;8.85;3.80;;;10.80;99.90;;;;;;5113715;28;20069;-80
2022/11/07 03:32:15;;;;;;;8.07;3.30;;;10.80;99.90;;;;;;5114109;28;20108;-80
2022/11/07 03:34:41;;;;;;;10.52;4.50;;;10.80;99.90;;;;;;5113934;28;20040;-81
2022/11/07 03:37:06;;;;;;;5.50;3.03;;;10.70;99.90;;;;;;5113677;28;20483;-81
2022/11/07 03:39:32;;;;;;;15.45;3.80;;;10.70;99.90;;;;;;5113376;28;20040;-80
2022/11/07 03:41:57;;;;;;;13.57;4.03;;;10.70;99.90;;;;;;5115277;28;20100;-80
2022/11/07 03:44:23;;;;;;;10.02;3.85;;;10.60;99.90;;;;;;5117014;28;20505;-80
2022/11/07 03:46:49;;;;;;;8.52;3.83;;;10.60;99.90;;;;;;5117386;28;20164;-81
2022/11/07 03:49:14;;;;;;;7.90;3.53;;;10.60;99.90;;;;;;5117721;28;20040;-81
2022/11/07 03:51:40;;;;;;;11.52;3.42;;;10.60;99.90;;;;;;5099313;28;20044;-81
2022/11/07 03:54:06;;;;;;;9.80;4.00;;;10.60;99.90;;;;;;5117514;28;20062;-81
2022/11/07 03:56:31;;;;;;;12.55;3.50;;;10.60;99.90;;;;;;5117089;28;20051;-81
2022/11/07 03:58:57;;;;;;;10.82;3.88;;;10.60;99.90;;;;;;5116998;28;20443;-81
2022/11/07 04:01:22;;;;;;;11.30;3.55;;;10.60;99.90;;;;;;5117246;28;20050;-81
2022/11/07 04:03:48;;;;;;;7.93;3.25;;;10.50;99.90;;;;;;5117101;28;20047;-81
2022/11/07 04:06:13;;;;;;;11.43;3.97;;;10.60;99.90;;;;;;5116687;28;20044;-81
2022/11/07 04:08:39;;;;;;;9.98;3.08;;;10.70;99.90;;;;;;5117133;28;20071;-81
2022/11/07 04:11:05;;;;;;;6.35;3.47;;;10.70;99.90;;;;;;5116746;28;20040;-81
2022/11/07 04:19:02;;;;;;;14.88;3.55;;;10.70;99.90;;;;;;5117085;28;20482;-80
2022/11/07 04:21:27;;;;;;;14.40;3.47;;;10.70;99.90;;;;;;5116589;28;20079;-81
2022/11/07 04:23:53;;;;;;;8.60;3.30;;;10.70;99.90;;;;;;5116595;28;20055;-80
2022/11/07 04:29:03;;;;;;;10.45;3.53;;;10.80;99.90;;;;;;5116495;28;20055;-81
2022/11/07 04:31:29;;;;;;;9.95;4.00;;;10.80;99.90;;;;;;5116524;28;20070;-80
2022/11/07 04:33:54;;;;;;;13.07;3.08;;;10.70;99.90;;;;;;5116416;28;20134;-80
2022/11/07 04:36:20;;;;;;;7.63;3.45;;;10.70;99.90;;;;;;5115119;28;20031;-80
2022/11/07 04:38:45;;;;;;;9.20;3.10;;;10.60;99.90;;;;;;5115151;28;20043;-80
2022/11/07 04:41:23;;;;;;;4.85;3.03;;;10.70;99.90;;;;;;5116240;28;20383;-80
2022/11/07 04:43:49;;;;;;;8.40;3.60;;;10.80;99.90;;;;;;5116147;28;20043;-81
2022/11/07 04:46:15;;;;;;;14.57;4.28;;;10.90;99.90;;;;;;5116272;28;20050;-81
2022/11/07 04:48:42;;;;;;;9.43;3.57;;;10.70;99.90;;;;;;5116278;28;20386;-80
2022/11/07 04:51:17;;;;;;;14.13;4.15;;;10.80;99.90;;;;;;5116069;28;20679;-80
2022/11/07 04:53:42;;;;;;;12.77;4.00;;;10.80;99.90;;;;;;5115755;28;20051;-80
2022/11/07 04:56:08;;;;;;;12.63;4.38;;;10.80;99.90;;;;;;5115961;28;20479;-80
2022/11/07 04:58:33;;;;;;;10.40;3.95;;;10.80;99.90;;;;;;5115908;28;20541;-80
2022/11/07 05:00:59;;;;;;;8.40;3.63;;;10.80;99.90;;;;;;5115934;28;20043;-80
2022/11/07 05:03:24;;;;;;;11.00;3.88;;;10.80;99.90;;;;;;5115893;28;20047;-80
2022/11/07 05:05:50;;;;;;;7.30;4.10;;;10.80;99.90;;;;;;5115690;28;20043;-79
2022/11/07 05:08:16;;;;;;;13.35;3.75;;;10.60;99.90;;;;;;5114488;28;20048;-80
2022/11/07 05:10:41;;;;;;;13.65;4.03;;;10.70;99.90;;;;;;5115821;28;20490;-79
2022/11/07 05:13:07;;;;;;;10.98;4.15;;;10.60;99.90;;;;;;5115710;28;20047;-81
2022/11/07 05:15:32;;;;;;;13.57;3.97;;;10.60;99.90;;;;;;5115625;28;20075;-80
2022/11/07 05:17:58;;;;;;;10.90;4.07;;;10.50;99.90;;;;;;5115482;28;20046;-80
2022/11/07 05:20:33;;;;;;;15.85;4.75;;;10.60;99.90;;;;;;5115195;28;20500;-80
2022/11/07 05:23:13;;;;;;;9.98;3.83;;;10.60;99.90;;;;;;5115477;28;20044;-80
2022/11/07 05:25:41;;;;;;;8.70;3.65;;;10.60;99.90;;;;;;5115738;28;20050;-80
2022/11/07 05:28:12;;;;;;;10.20;4.10;;;10.80;99.90;;;;;;5115157;28;20043;-80
2022/11/07 05:30:42;;;;;;;8.05;4.03;;;10.70;99.90;;;;;;5115493;28;20082;-80
2022/11/07 05:33:08;;;;;;;8.52;3.97;;;10.70;99.90;;;;;;5115137;28;20055;-80
2022/11/07 05:35:34;;;;;;;12.80;4.00;;;10.60;99.90;;;;;;5115175;28;20044;-80
2022/11/07 05:38:00;;;;;;;12.52;3.97;;;10.70;99.90;;;;;;5115232;28;20043;-80
2022/11/07 05:40:25;;;;;;;9.77;3.78;;;10.60;99.90;;;;;;5115043;28;20101;-79
2022/11/07 05:42:51;;;;;;;7.63;3.88;;;10.70;99.90;;;;;;5114966;28;20468;-80
2022/11/07 05:45:16;;;;;;;10.77;4.22;;;10.70;99.90;;;;;;5115083;28;20050;-80
2022/11/07 05:47:42;;;;;;;10.10;3.97;;;10.70;99.90;;;;;;5114923;28;20039;-80
2022/11/07 05:50:08;;;;;;;11.80;4.30;;;10.80;99.90;;;;;;5114758;28;20111;-80
2022/11/07 05:52:34;;;;;;;10.05;3.45;;;10.70;99.90;;;;;;5114737;28;20035;-80
2022/11/07 05:54:59;;;;;;;11.68;3.88;;;10.60;99.90;;;;;;5114754;28;20064;-80
2022/11/07 05:57:27;;;;;;;11.13;4.10;;;11.10;99.90;;;;;;5114819;28;20093;-80
2022/11/07 05:59:53;;;;;;;11.40;3.75;;;10.70;99.90;;;;;;5114626;28;20090;-80
2022/11/07 06:02:18;;;;;;;10.55;4.20;;;11.20;99.90;;;;;;5114680;28;20079;-80
2022/11/07 06:04:44;;;;;;;8.27;3.55;;;10.80;99.90;;;;;;5113887;28;20036;-80
2022/11/07 06:07:09;;;;;;;10.70;4.25;;;10.50;99.90;;;;;;5114635;28;20089;-80
2022/11/07 06:09:35;;;;;;;12.05;4.43;;;10.40;99.90;;;;;;5114621;28;20464;-80
2022/11/07 06:12:02;;;;;;;15.45;4.00;;;11.00;99.90;;;;;;5114550;28;20051;-81
2022/11/07 06:14:28;;;;;;;12.23;4.57;;;10.70;99.90;;;;;;5114315;28;20126;-83
2022/11/07 06:16:53;;;;;;;16.50;4.43;;;10.90;99.90;;;;;;5096397;28;20079;-80
2022/11/07 06:19:19;;;;;;;6.30;3.85;;;10.80;99.90;;;;;;5113955;28;20047;-82
2022/11/07 06:21:44;;;;;;;13.00;4.18;;;10.70;99.90;;;;;;5114366;28;20050;-84
2022/11/07 06:24:10;;;;;;;12.30;4.22;;;11.20;99.90;;;;;;5114324;28;20051;-87
2022/11/07 06:26:36;;;;;;;7.68;3.55;;;10.80;99.90;;;;;;5096460;28;20040;-82
2022/11/07 06:29:01;;;;;;;14.88;5.13;;;10.90;99.90;;;;;;5114124;28;20059;-78
2022/11/07 06:31:27;;;;;;;9.98;3.60;;;10.90;99.90;;;;;;5114201;28;20051;-79
2022/11/07 06:33:52;;;;;;;7.18;3.67;;;10.90;99.90;;;;;;5114076;28;20451;-78
2022/11/07 06:36:18;;;;;;;11.70;3.95;;;10.90;99.90;;;;;;5114107;28;20092;-80
2022/11/07 06:38:44;;;;;;;15.50;4.50;;;10.90;99.90;;;;;;5114090;28;20036;-79
2022/11/07 06:41:14;;;;;;;13.10;4.25;;;10.90;99.90;;;;;;5114010;28;20568;-77
2022/11/07 06:43:39;;;;;;;14.63;4.45;;;10.90;99.90;;;;;;5114151;28;20055;-77
2022/11/07 06:46:09;;;;;;;9.20;4.05;;;10.90;99.90;;;;;;5114072;28;20043;-76
2022/11/07 06:48:35;;;;;;;12.85;4.93;;;10.90;99.90;;;;;;5113786;28;20487;-78
2022/11/07 06:51:02;;;;;;;12.37;4.30;;;10.90;99.90;;;;;;5114664;28;20395;-76
2022/11/07 06:53:28;;;;;;;14.65;4.60;;;10.90;99.90;;;;;;5114179;28;20714;-78
2022/11/07 06:55:55;;;;;;;11.83;4.23;;;10.90;99.90;;;;;;5113024;28;20502;-80
2022/11/07 06:58:21;;;;;;;16.02;4.70;;;10.90;99.90;;;;;;5114136;28;20122;-78
2022/11/07 07:00:47;;;;;;;7.83;4.03;;;10.90;99.90;;;;;;5112908;28;20042;-79
2022/11/07 07:03:13;;;;;;;16.17;4.20;;;11.00;99.90;;;;;;5113821;28;20277;-79
2022/11/07 07:05:38;;;;;;;12.63;4.53;;;10.90;99.90;;;;;;5113971;28;20073;-78
2022/11/07 07:08:06;;;;;;;11.80;4.30;;;11.00;99.90;;;;;;5113049;28;20084;-79
2022/11/07 07:10:37;;;;;;;11.68;4.10;;;11.00;99.90;;;;;;5112937;28;20047;-79
2022/11/07 07:13:02;;;;;;;12.05;4.18;;;11.00;99.90;;;;;;5113939;28;20051;-79
2022/11/07 07:15:28;;;;;;;15.73;4.10;;;11.10;99.90;;;;;;5114714;28;20372;-79
2022/11/07 07:17:57;;;;;;;13.45;4.65;;;11.00;99.90;;;;;;5117882;28;20054;-81
2022/11/07 07:20:23;;;;;;;10.95;4.47;;;11.00;99.90;;;;;;5117622;28;20172;-83
2022/11/07 07:22:48;;;;;;;14.45;5.05;;;11.20;99.90;;;;;;5117887;28;20059;-81
2022/11/07 07:25:14;;;;;;;16.45;3.90;;;11.00;99.90;;;;;;5099570;28;20087;-83
2022/11/07 07:27:40;;;;;;;13.77;3.50;;;11.00;99.90;;;;;;5117398;28;20043;-82
2022/11/07 07:30:06;;;;;;;15.00;3.72;;;11.00;99.90;;;;;;5117968;28;20051;-82
2022/11/07 07:32:34;;;;;;;15.93;5.18;;;11.00;99.90;;;;;;5099485;28;20043;-79
2022/11/07 07:35:00;;;;;;;13.40;4.15;;;11.10;99.90;;;;;;5117116;28;20528;-81
2022/11/07 07:37:25;;;;;;;12.73;3.80;;;10.80;99.90;;;;;;5117144;28;20051;-79
2022/11/07 07:39:51;;;;;;;18.50;4.47;;;10.70;99.90;;;;;;5117303;28;20090;-81
2022/11/07 07:42:18;;;;;;;15.13;4.53;;;11.20;99.90;;;;;;5115949;28;20048;-84
2022/11/07 07:44:43;;;;;;;17.27;4.27;;;11.10;99.90;;;;;;5116937;28;20399;-81
2022/11/07 07:47:09;;;;;;;16.90;3.92;;;11.20;99.90;;;;;;5116053;28;20036;-78
2022/11/07 07:49:35;;;;;;;16.52;4.30;;;11.20;99.90;;;;;;5117279;28;20165;-81
2022/11/07 07:52:00;;;;;;;16.88;4.30;;;11.20;99.90;;;;;;5119513;27;20043;-81
2022/11/07 07:54:26;;;;;;;11.02;3.53;;;11.00;99.90;;;;;;5137159;27;20483;-80
2022/11/07 07:56:51;;;;;;;15.27;3.60;;;11.30;99.90;;;;;;5137448;27;20546;-80
2022/11/07 07:59:17;;;;;;;15.38;4.07;;;11.40;99.90;;;;;;5137113;27;20047;-80
2022/11/07 08:01:42;;;;;;;15.88;5.50;;;11.40;99.90;;;;;;5137083;27;20154;-82
2022/11/07 08:04:08;;;;;;;13.15;3.88;;;11.50;99.90;;;;;;5136034;27;20066;-82
2022/11/07 08:06:36;;;;;;;12.07;3.15;;;11.40;99.90;;;;;;5136445;27;20042;-81
2022/11/07 08:09:02;;;;;;;12.88;4.30;;;11.40;99.90;;;;;;5137429;27;20045;-81
2022/11/07 08:11:27;;;;;;;11.87;3.80;;;11.40;99.90;;;;;;5137482;27;20047;-81
2022/11/07 08:13:53;;;;;;;12.90;3.85;;;11.50;99.90;;;;;;5136443;27;20066;-81
2022/11/07 08:16:19;;;;;;;12.65;4.32;;;11.50;99.90;;;;;;5136869;27;20477;-75
2022/11/07 08:18:44;;;;;;;10.95;3.40;;;11.50;99.90;;;;;;5137458;27;20090;-75
2022/11/07 08:21:10;;;;;;;7.95;3.90;;;11.60;99.90;;;;;;5137337;27;20482;-75
2022/11/07 08:23:35;;;;;;;13.43;3.78;;;11.60;99.90;;;;;;5137540;27;20047;-77
2022/11/07 08:26:03;;;;;;;11.27;3.10;;;12.00;99.90;;;;;;5137351;27;20066;-80
2022/11/07 08:28:34;;;;;;;15.85;4.40;;;11.70;99.90;;;;;;5136048;27;20047;-80
2022/11/07 08:31:01;;;;;;;18.30;4.22;;;11.70;99.90;;;;;;5135074;27;20406;-81
2022/11/07 08:33:27;;;;;;;12.18;4.10;;;11.90;99.90;;;;;;5136719;27;20051;-82
2022/11/07 08:36:01;;;;;;;12.23;3.47;;;11.70;99.90;;;;;;5118116;27;20066;-79
2022/11/07 08:38:29;;;;;;;14.60;3.63;;;11.90;99.90;;;;;;5115779;28;20505;-79
2022/11/07 08:40:54;;;;;;;17.50;3.63;;;11.90;99.90;;;;;;5116034;28;20043;-80
2022/11/07 08:43:21;;;;;;;14.52;4.00;;;12.30;99.90;;;;;;5115989;28;20043;-80
2022/11/07 08:45:48;;;;;;;9.93;3.30;;;11.90;99.90;;;;;;5115769;28;20185;-77
2022/11/07 08:48:14;;;;;;;;;;;12.40;99.90;;;;;;5116391;28;20046;-78
2022/11/07 08:50:40;;;;;;;10.07;3.35;;;11.90;99.90;;;;;;5115990;28;19924;-77
2022/11/07 08:53:06;;;;;;;11.18;3.88;;;12.10;99.90;;;;;;5116247;28;20454;-76
2022/11/07 08:55:31;;;;;;;13.45;3.70;;;12.00;99.90;;;;;;5115842;28;20079;-78
2022/11/07 08:58:02;;;;;;;11.43;3.10;;;12.00;99.90;;;;;;5115703;28;20090;-77
2022/11/07 09:00:28;;;;;;;11.35;3.30;;;12.20;99.90;;;;;;5115441;28;20082;-77
2022/11/07 09:02:53;;;;;;;10.70;3.50;;;12.00;99.90;;;;;;5114502;28;20125;-79
2022/11/07 09:05:19;;;;;;;15.18;3.90;;;12.00;99.90;;;;;;5115237;28;20067;-79
2022/11/07 09:07:45;;;;;;;10.02;3.42;;;12.00;99.90;;;;;;5115121;28;20051;-80
2022/11/07 09:10:10;;;;;;;7.07;3.30;;;12.00;99.90;;;;;;5115653;28;20039;-82
2022/11/07 09:12:43;;;;;;;14.25;3.83;;;12.10;99.90;;;;;;5115536;27;20542;-81
2022/11/07 09:15:09;;;;;;;7.57;3.60;;;12.50;99.90;;;;;;5115413;28;20044;-81
2022/11/07 09:17:35;;;;;;;11.30;3.83;;;12.10;99.90;;;;;;5115535;28;20049;-79
2022/11/07 09:20:00;;;;;;;9.45;3.60;;;12.20;99.90;;;;;;5115272;28;20379;-80
2022/11/07 09:22:27;;;;;;;12.15;3.70;;;12.30;99.90;;;;;;5115233;28;20055;-87
2022/11/07 09:24:52;;;;;;;9.17;2.70;;;12.30;99.90;;;;;;5114369;28;20160;-86
2022/11/07 09:27:18;;;;;;;14.10;3.75;;;12.30;99.90;;;;;;5114966;28;20082;-87
2022/11/07 09:29:43;;;;;;;8.30;3.00;;;12.40;99.90;;;;;;5113556;28;20701;-83
2022/11/07 09:32:09;;;;;;;10.65;3.42;;;12.30;99.90;;;;;;5115068;28;20152;-89
2022/11/07 09:34:35;;;;;;;14.07;4.00;;;12.90;99.90;;;;;;5115112;28;20097;-79
2022/11/07 09:37:01;;;;;;;9.18;3.15;;;12.60;99.90;;;;;;5115293;28;20100;-82
2022/11/07 09:39:27;;;;;;;8.65;3.17;;;12.70;99.90;;;;;;5114026;28;20127;-78
2022/11/07 09:42:02;;;;;;;16.13;3.78;;;12.80;99.90;;;;;;5114695;28;20130;-79
2022/11/07 09:44:50;;;;;;;10.27;3.30;;;12.80;99.90;;;;;;5114751;28;20048;-77
2022/11/07 09:47:19;;;;;;;12.88;3.40;;;13.40;99.90;;;;;;5114682;28;20495;-80
2022/11/07 09:50:03;;;;;;;13.85;3.25;;;12.90;99.90;;;;;;5113612;28;20131;-79
2022/11/07 09:52:46;;;;;;;10.75;3.50;;;12.90;99.90;;;;;;5114675;28;20119;-78
2022/11/07 09:55:50;;;;;;;11.27;3.75;;;13.00;99.90;;;;;;5114584;28;20051;-79
2022/11/07 09:58:39;;;;;;;10.60;3.40;;;13.00;99.90;;;;;;5057952;28;20047;-80
2022/11/07 10:01:09;;;;;;;7.88;3.83;;;12.80;99.90;;;;;;5114525;28;20050;-79
2022/11/07 10:03:37;;;;;;;12.68;3.83;;;12.90;99.90;;;;;;5115115;28;20044;-79
2022/11/07 10:06:21;;;;;;;11.52;3.20;;;12.90;99.90;;;;;;5114919;28;20094;-79
2022/11/07 10:09:10;;;;;;;9.75;3.33;;;12.90;99.90;;;;;;5114587;28;20126;-79
2022/11/07 10:11:51;;;;;;;10.45;3.25;;;12.80;99.90;;;;;;5114404;28;20047;-79
2022/11/07 10:14:50;;;;;;;6.90;3.45;;;12.80;99.90;;;;;;5113061;28;20081;-79
2022/11/07 10:17:30;;;;;;;14.07;3.53;;;12.80;99.90;;;;;;5114648;28;20101;-79
2022/11/07 10:20:02;;;;;;;7.90;3.50;;;12.80;99.90;;;;;;5114186;28;20035;-79
2022/11/07 10:22:46;;;;;;;11.18;3.40;;;12.90;99.90;;;;;;5114068;28;20585;-78
2022/11/07 10:25:18;;;;;;;12.65;3.75;;;12.90;99.90;;;;;;5114077;28;20054;-78
2022/11/07 10:27:49;;;;;;;11.45;3.30;;;12.90;99.90;;;;;;5113886;28;20113;-81
2022/11/07 10:30:18;;;;;;;14.10;3.80;;;13.20;99.90;;;;;;5114129;28;20056;-72
2022/11/07 10:33:00;;;;;;;9.45;3.00;;;13.00;99.90;;;;;;5114091;28;20051;-80
2022/11/07 10:35:32;;;;;;;7.28;3.60;;;13.10;99.90;;;;;;5114280;28;20130;-79
2022/11/07 10:38:13;;;;;;;7.43;3.13;;;13.10;99.90;;;;;;5113028;28;20131;-79
2022/11/07 10:40:40;;;;;;;8.50;2.92;;;13.20;99.90;;;;;;5113701;28;20039;-80
2022/11/07 10:43:13;;;;;;;11.85;2.97;;;13.60;99.90;;;;;;5113675;28;20046;-79
2022/11/07 10:45:39;;;;;;;12.45;3.03;;;13.30;99.90;;;;;;5113921;28;20039;-81
2022/11/07 10:48:05;;;;;;;8.82;2.72;;;13.30;99.90;;;;;;5114064;28;20052;-79
2022/11/07 10:50:31;;;;;;;7.75;2.88;;;13.40;99.90;;;;;;5115210;28;20040;-81
2022/11/07 10:52:58;;;;;;;11.93;2.90;;;13.40;99.90;;;;;;5117832;28;20475;-78
2022/11/07 10:55:25;;;;;;;7.93;2.80;;;13.30;99.90;;;;;;5118097;28;20131;-81
2022/11/07 10:57:53;;;;;;;;;;;13.60;99.90;;;;;;5118380;28;20368;-79
2022/11/07 11:00:23;;;;;;;11.80;3.35;;;13.70;99.90;;;;;;5117998;28;19920;-82
2022/11/07 11:02:51;;;;;;;6.95;2.63;;;13.80;99.90;;;;;;5118212;28;20051;-80
2022/11/07 11:05:32;;;;;;;14.98;3.47;;;13.70;99.90;;;;;;5118001;28;20051;-80
2022/11/07 11:08:16;;;;;;;11.40;3.38;;;13.80;99.90;;;;;;5099929;28;20063;-80
2022/11/07 11:10:42;;;;;;;9.50;3.00;;;13.80;99.90;;;;;;5117871;28;20039;-79
2022/11/07 11:13:26;;;;;;;6.30;2.70;;;13.90;99.90;;;;;;5117709;28;20551;-79
2022/11/07 11:15:51;;;;;;;10.18;2.85;;;14.20;99.90;;;;;;5117760;28;20066;-79
2022/11/07 11:18:17;;;;;;;13.67;3.47;;;14.10;99.90;;;;;;5117438;28;20804;-82
2022/11/07 11:20:53;;;;;;;10.00;2.60;;;14.10;99.90;;;;;;5121338;28;20134;-81
2022/11/07 11:23:25;;;;;;;12.68;2.97;;;14.10;99.90;;;;;;5117427;28;20104;-85
2022/11/07 11:26:01;;;;;;;11.95;3.15;;;14.20;99.90;;;;;;5116052;28;20105;-81
2022/11/07 11:28:35;;;;;;;9.50;3.42;;;14.00;99.90;;;;;;5099059;28;20044;-80
2022/11/07 11:31:12;;;;;;;10.98;2.95;;;13.90;99.90;;;;;;5117877;28;20043;-81
2022/11/07 11:33:49;;;;;;;8.68;3.15;;;13.90;99.90;;;;;;5106578;28;20176;-77
2022/11/07 11:36:18;;;;;;;5.90;2.50;;;13.90;99.90;;;;;;5116684;28;20499;-78
2022/11/07 11:38:53;;;;;;;7.25;2.70;;;13.90;99.90;;;;;;5117305;27;20040;-80
2022/11/07 11:41:36;;;;;;;9.05;3.13;;;14.00;99.90;;;;;;5117062;28;20159;-82
2022/11/07 11:44:19;;;;;;;12.25;3.17;;;14.00;99.90;;;;;;5117244;28;20054;-81
2022/11/07 11:46:47;;;;;;;12.82;3.45;;;14.00;99.90;;;;;;5117078;28;20123;-79
2022/11/07 11:49:27;;;;;;;12.80;3.05;;;14.00;99.90;;;;;;5116846;28;20049;-77
2022/11/07 11:52:00;;;;;;;10.48;3.00;;;14.10;99.90;;;;;;5116984;28;20395;-77
2022/11/07 11:54:26;;;;;;;8.35;2.90;;;14.10;99.90;;;;;;5115604;28;20399;-78
2022/11/07 11:56:54;;;;;;;9.77;2.87;;;14.20;99.90;;;;;;5116754;28;20051;-84
2022/11/07 11:59:38;;;;;;;8.13;2.80;;;14.60;99.90;;;;;;5115918;28;20483;-78
2022/11/07 12:02:20;;;;;;;8.02;2.50;;;14.10;99.90;;;;;;5115666;28;20481;-80
2022/11/07 12:04:57;;;;;;;10.60;2.60;;;14.10;99.90;;;;;;5117158;28;20044;-79
2022/11/07 12:07:29;;;;;;;10.35;2.97;;;14.10;99.90;;;;;;5116865;28;20051;-79
2022/11/07 12:10:02;;;;;;;8.70;2.85;;;14.10;99.90;;;;;;5116531;28;20529;-80
2022/11/07 12:12:41;;;;;;;11.80;3.30;;;14.10;99.90;;;;;;5116218;28;20043;-79
2022/11/07 12:15:23;;;;;;;16.10;3.30;;;14.10;99.90;;;;;;5116638;28;20083;-79
2022/11/07 12:17:59;;;;;;;8.32;2.83;;;14.00;99.90;;;;;;5116672;28;20043;-80
2022/11/07 12:20:30;;;;;;;12.18;3.22;;;14.10;99.90;;;;;;5116619;27;20516;-71
2022/11/07 12:23:20;;;;;;;9.98;3.10;;;14.10;99.90;;;;;;5116196;28;20044;-80
2022/11/07 12:25:59;;;;;;;11.43;3.70;;;14.00;99.90;;;;;;5116502;28;20039;-80
2022/11/07 12:28:54;;;;;;;13.93;3.65;;;14.10;99.90;;;;;;5114755;28;20092;-78
2022/11/07 12:31:20;;;;;;;10.30;3.45;;;14.10;99.90;;;;;;5115535;28;20048;-81
2022/11/07 12:34:01;;;;;;;8.80;3.40;;;14.00;99.90;;;;;;5116335;28;20552;-80
2022/11/07 12:37:01;;;;;;;12.85;3.58;;;13.90;99.90;;;;;;5115984;28;20565;-81
2022/11/07 12:39:27;;;;;;;10.55;3.00;;;14.10;99.90;;;;;;5114540;28;20441;-81
2022/11/07 12:42:07;;;;;;;11.70;3.30;;;14.20;99.90;;;;;;5115583;28;20050;-81
2022/11/07 12:45:06;;;;;;;11.02;2.75;;;14.30;99.90;;;;;;5114920;28;20407;-81
2022/11/07 12:47:57;;;;;;;7.38;3.42;;;14.40;99.90;;;;;;5116058;28;20055;-80
2022/11/07 12:51:05;;;;;;;12.32;3.17;;;14.50;99.90;;;;;;5116209;28;20096;-79
2022/11/07 12:53:38;;;;;;;9.13;3.10;;;14.40;99.90;;;;;;5072733;28;20041;-80
2022/11/07 12:56:12;;;;;;;9.57;3.33;;;14.40;99.90;;;;;;5109254;28;20153;-81
2022/11/07 12:58:41;;;;;;;6.57;2.80;;;14.70;99.90;;;;;;5115557;28;20062;-79
2022/11/07 13:01:10;;;;;;;12.32;2.97;;;14.60;99.90;;;;;;5115579;28;20411;-80
2022/11/07 13:04:15;;;;;;;11.68;2.85;;;14.40;99.90;;;;;;5115970;28;20119;-78